createdAt,value
2019-02-24T00:00:51.631Z,53.45
2019-02-24T00:01:51.547Z,53.83
2019-02-24T00:02:51.546Z,55.15
2019-02-24T00:03:51.419Z,56.57
2019-02-24T00:04:51.393Z,58.18
2019-02-24T00:05:51.388Z,60.52
2019-02-24T00:06:51.265Z,60.83
2019-02-24T00:07:51.184Z,61.65
2019-02-24T00:08:51.147Z,61.83
2019-02-24T00:09:51.149Z,62.21
2019-02-24T00:10:51.034Z,63.26
2019-02-24T00:11:51.031Z,64.11
2019-02-24T00:12:50.913Z,64.29
2019-02-24T00:13:50.831Z,63.26
2019-02-24T00:14:50.789Z,62.78
2019-02-24T00:15:50.706Z,62.40
2019-02-24T00:16:50.705Z,62.78
2019-02-24T00:17:50.600Z,61.74
2019-02-24T00:18:50.552Z,61.65
2019-02-24T00:19:50.485Z,61.46
2019-02-24T00:20:50.483Z,61.18
2019-02-24T00:21:50.354Z,60.89
2019-02-24T00:22:50.318Z,60.99
2019-02-24T00:23:51.390Z,61.08
2019-02-24T00:24:50.199Z,59.38
2019-02-24T00:25:50.192Z,57.96
2019-02-24T00:26:50.108Z,57.11
2019-02-24T00:27:49.993Z,56.07
2019-02-24T00:28:49.958Z,55.03
2019-02-24T00:29:49.873Z,54.37
2019-02-24T00:30:49.834Z,54.27
2019-02-24T00:31:49.839Z,56.20
2019-02-24T00:32:49.723Z,57.30
2019-02-24T00:33:49.637Z,58.15
2019-02-24T00:34:49.603Z,59.09
2019-02-24T00:35:49.596Z,61.27
2019-02-24T00:36:49.517Z,62.59
2019-02-24T00:37:49.394Z,64.11
2019-02-24T00:38:49.394Z,64.83
2019-02-24T00:39:49.359Z,65.78
2019-02-24T00:40:49.368Z,66.35
2019-02-24T00:41:49.163Z,67.10
2019-02-24T00:42:49.153Z,65.97
2019-02-24T00:43:49.039Z,65.11
2019-02-24T00:44:49.036Z,64.73
2019-02-24T00:45:49.002Z,65.68
2019-02-24T00:46:48.914Z,64.45
2019-02-24T00:47:48.807Z,64.83
2019-02-24T00:48:48.803Z,65.11
2019-02-24T00:49:48.761Z,65.97
2019-02-24T00:50:48.678Z,65.68
2019-02-24T00:51:48.568Z,64.64
2019-02-24T00:52:48.558Z,64.17
2019-02-24T00:53:48.453Z,64.92
2019-02-24T00:54:48.532Z,64.83
2019-02-24T00:55:48.332Z,64.58
2019-02-24T00:56:48.329Z,63.92
2019-02-24T00:57:48.289Z,63.35
2019-02-24T00:58:48.213Z,63.70
2019-02-24T00:59:48.170Z,63.04
2019-02-24T01:00:48.081Z,61.90
2019-02-24T01:01:47.969Z,61.93
2019-02-24T01:02:47.965Z,61.27
2019-02-24T01:03:47.928Z,61.18
2019-02-24T01:04:47.842Z,61.65
2019-02-24T01:05:47.742Z,60.33
2019-02-24T01:06:47.725Z,59.28
2019-02-24T01:07:47.628Z,61.18
2019-02-24T01:08:47.690Z,62.88
2019-02-24T01:09:47.506Z,64.01
2019-02-24T01:10:47.483Z,62.88
2019-02-24T01:11:47.384Z,63.13
2019-02-24T01:12:47.364Z,62.78
2019-02-24T01:13:47.332Z,61.90
2019-02-24T01:14:47.256Z,61.90
2019-02-24T01:15:47.144Z,62.47
2019-02-24T01:16:47.140Z,62.47
2019-02-24T01:17:47.097Z,62.75
2019-02-24T01:18:47.007Z,62.94
2019-02-24T01:19:46.994Z,63.23
2019-02-24T01:20:46.889Z,63.98
2019-02-24T01:21:46.863Z,64.07
2019-02-24T01:22:46.792Z,64.64
2019-02-24T01:23:46.742Z,64.54
2019-02-24T01:24:46.735Z,64.64
2019-02-24T01:25:46.620Z,65.59
2019-02-24T01:26:46.534Z,65.68
2019-02-24T01:27:46.494Z,65.97
2019-02-24T01:28:46.417Z,65.49
2019-02-24T01:29:46.381Z,65.59
2019-02-24T01:30:46.291Z,65.68
2019-02-24T01:31:46.197Z,66.16
2019-02-24T01:32:46.189Z,66.53
2019-02-24T01:33:46.071Z,66.06
2019-02-24T01:34:46.144Z,65.78
2019-02-24T01:35:46.017Z,65.30
2019-02-24T01:36:45.932Z,64.83
2019-02-24T01:37:45.837Z,64.45
2019-02-24T01:38:45.829Z,64.64
2019-02-24T01:39:45.781Z,64.64
2019-02-24T01:40:45.694Z,64.45
2019-02-24T01:41:45.602Z,64.36
2019-02-24T01:42:45.579Z,64.07
2019-02-24T01:43:45.480Z,64.54
2019-02-24T01:44:45.548Z,63.98
2019-02-24T01:45:45.422Z,64.07
2019-02-24T01:46:45.363Z,63.70
2019-02-24T01:47:45.241Z,64.26
2019-02-24T01:48:45.218Z,64.73
2019-02-24T01:49:45.225Z,65.49
2019-02-24T01:50:45.110Z,65.97
2019-02-24T01:51:45.064Z,66.53
2019-02-24T01:52:44.988Z,67.66
2019-02-24T01:53:44.953Z,68.14
2019-02-24T01:54:44.945Z,67.29
2019-02-24T01:55:44.834Z,67.57
2019-02-24T01:56:44.750Z,68.23
2019-02-24T01:57:44.707Z,68.80
2019-02-24T01:58:44.630Z,68.99
2019-02-24T01:59:44.630Z,68.33
2019-02-24T02:00:44.504Z,67.66
2019-02-24T02:01:44.483Z,67.00
2019-02-24T02:02:44.390Z,65.97
2019-02-24T02:03:44.290Z,66.16
2019-02-24T02:04:44.270Z,66.63
2019-02-24T02:05:44.227Z,67.10
2019-02-24T02:06:44.233Z,67.47
2019-02-24T02:07:44.110Z,67.66
2019-02-24T02:08:44.026Z,67.29
2019-02-24T02:09:43.929Z,66.82
2019-02-24T02:10:43.991Z,67.38
2019-02-24T02:11:43.874Z,66.63
2019-02-24T02:12:43.789Z,66.72
2019-02-24T02:13:43.755Z,66.53
2019-02-24T02:14:43.666Z,66.63
2019-02-24T02:15:43.684Z,66.72
2019-02-24T02:16:43.551Z,67.47
2019-02-24T02:17:43.513Z,68.52
2019-02-24T02:18:43.514Z,68.71
2019-02-24T02:19:43.403Z,68.71
2019-02-24T02:20:43.310Z,68.99
2019-02-24T02:21:43.312Z,68.71
2019-02-24T02:22:43.196Z,68.90
2019-02-24T02:23:43.159Z,68.71
2019-02-24T02:24:43.081Z,68.61
2019-02-24T02:25:43.038Z,68.80
2019-02-24T02:26:43.042Z,68.61
2019-02-24T02:27:42.965Z,68.86
2019-02-24T02:28:44.196Z,69.09
2019-02-24T02:29:42.800Z,68.99
2019-02-24T02:30:42.715Z,68.39
2019-02-24T02:31:42.679Z,68.48
2019-02-24T02:32:42.684Z,69.05
2019-02-24T02:33:42.596Z,69.24
2019-02-24T02:34:42.475Z,68.29
2019-02-24T02:35:42.443Z,68.10
2019-02-24T02:36:42.358Z,68.39
2019-02-24T02:37:42.331Z,68.39
2019-02-24T02:38:42.323Z,69.24
2019-02-24T02:39:42.203Z,69.33
2019-02-24T02:40:42.122Z,69.62
2019-02-24T02:41:42.098Z,69.24
2019-02-24T02:42:42.007Z,69.43
2019-02-24T02:43:42.007Z,69.81
2019-02-24T02:44:41.893Z,70.18
2019-02-24T02:45:41.857Z,70.00
2019-02-24T02:46:41.770Z,70.18
2019-02-24T02:47:41.772Z,70.65
2019-02-24T02:48:41.726Z,71.12
2019-02-24T02:49:41.614Z,70.75
2019-02-24T02:50:41.529Z,70.18
2019-02-24T02:51:41.489Z,69.62
2019-02-24T02:52:41.417Z,70.28
2019-02-24T02:53:41.400Z,70.00
2019-02-24T02:54:41.290Z,70.75
2019-02-24T02:55:41.257Z,71.41
2019-02-24T02:56:41.164Z,71.50
2019-02-24T02:57:41.132Z,71.31
2019-02-24T02:58:41.132Z,71.12
2019-02-24T02:59:41.018Z,71.03
2019-02-24T03:00:40.926Z,71.41
2019-02-24T03:01:40.903Z,71.88
2019-02-24T03:02:40.804Z,71.50
2019-02-24T03:03:40.810Z,70.75
2019-02-24T03:04:40.689Z,70.18
2019-02-24T03:05:40.661Z,70.00
2019-02-24T03:06:40.575Z,70.00
2019-02-24T03:07:40.533Z,69.90
2019-02-24T03:08:40.545Z,70.18
2019-02-24T03:09:40.415Z,70.37
2019-02-24T03:10:40.418Z,70.65
2019-02-24T03:11:40.332Z,70.37
2019-02-24T03:12:40.259Z,70.94
2019-02-24T03:13:40.174Z,70.75
2019-02-24T03:14:40.091Z,69.43
2019-02-24T03:15:40.094Z,69.43
2019-02-24T03:16:40.060Z,69.81
2019-02-24T03:17:39.950Z,70.18
2019-02-24T03:18:39.859Z,70.28
2019-02-24T03:19:39.874Z,70.56
2019-02-24T03:20:39.742Z,70.84
2019-02-24T03:21:39.647Z,70.94
2019-02-24T03:22:39.614Z,71.22
2019-02-24T03:23:39.579Z,71.41
2019-02-24T03:24:39.583Z,71.60
2019-02-24T03:25:39.402Z,71.60
2019-02-24T03:26:39.375Z,71.12
2019-02-24T03:27:39.281Z,71.12
2019-02-24T03:28:39.266Z,70.75
2019-02-24T03:29:39.264Z,70.37
2019-02-24T03:30:39.145Z,69.90
2019-02-24T03:31:39.112Z,70.18
2019-02-24T03:32:39.026Z,70.18
2019-02-24T03:33:38.986Z,70.65
2019-02-24T03:34:38.907Z,70.18
2019-02-24T03:35:38.801Z,70.37
2019-02-24T03:36:38.864Z,70.47
2019-02-24T03:37:38.683Z,70.18
2019-02-24T03:38:38.663Z,69.90
2019-02-24T03:39:38.559Z,69.71
2019-02-24T03:40:38.555Z,69.43
2019-02-24T03:41:38.547Z,69.14
2019-02-24T03:42:38.429Z,68.39
2019-02-24T03:43:38.394Z,68.01
2019-02-24T03:44:38.304Z,68.76
2019-02-24T03:45:38.200Z,69.43
2019-02-24T03:46:38.268Z,69.33
2019-02-24T03:47:38.082Z,70.47
2019-02-24T03:48:38.065Z,70.37
2019-02-24T03:49:37.966Z,70.47
2019-02-24T03:50:37.945Z,69.81
2019-02-24T03:51:37.910Z,69.33
2019-02-24T03:52:37.831Z,69.71
2019-02-24T03:53:37.830Z,69.33
2019-02-24T03:54:37.705Z,69.24
2019-02-24T03:55:37.609Z,69.24
2019-02-24T03:56:37.590Z,69.52
2019-02-24T03:57:37.485Z,70.65
2019-02-24T03:58:37.552Z,71.03
2019-02-24T03:59:37.367Z,70.18
2019-02-24T04:00:37.355Z,69.05
2019-02-24T04:01:37.244Z,68.67
2019-02-24T04:02:37.247Z,68.01
2019-02-24T04:03:37.195Z,68.01
2019-02-24T04:04:37.109Z,67.82
2019-02-24T04:05:37.005Z,68.20
2019-02-24T04:06:37.004Z,67.72
2019-02-24T04:07:36.887Z,66.78
2019-02-24T04:08:36.964Z,64.89
2019-02-24T04:09:36.765Z,64.14
2019-02-24T04:10:36.838Z,62.62
2019-02-24T04:11:36.641Z,61.33
2019-02-24T04:12:36.638Z,61.15
2019-02-24T04:13:36.520Z,61.15
2019-02-24T04:14:36.514Z,61.61
2019-02-24T04:15:36.480Z,62.47
2019-02-24T04:16:36.399Z,64.26
2019-02-24T04:17:36.283Z,66.06
2019-02-24T04:18:36.273Z,66.25
2019-02-24T04:19:36.170Z,66.82
2019-02-24T04:20:36.241Z,66.82
2019-02-24T04:21:36.050Z,67.82
2019-02-24T04:22:36.034Z,67.63
2019-02-24T04:23:35.923Z,67.91
2019-02-24T04:24:35.916Z,68.29
2019-02-24T04:25:35.883Z,67.44
2019-02-24T04:26:35.803Z,67.44
2019-02-24T04:27:35.682Z,67.35
2019-02-24T04:28:35.684Z,68.39
2019-02-24T04:29:35.645Z,68.48
2019-02-24T04:30:35.560Z,67.72
2019-02-24T04:31:35.446Z,66.88
2019-02-24T04:32:35.439Z,67.44
2019-02-24T04:33:35.323Z,66.78
2019-02-24T04:34:35.288Z,66.78
2019-02-24T04:35:35.207Z,66.69
2019-02-24T04:36:35.168Z,67.91
2019-02-24T04:37:35.178Z,67.63
2019-02-24T04:38:35.050Z,67.44
2019-02-24T04:39:35.050Z,66.59
2019-02-24T04:40:34.927Z,67.07
2019-02-24T04:41:34.851Z,67.35
2019-02-24T04:42:34.810Z,68.39
2019-02-24T04:43:34.726Z,68.10
2019-02-24T04:44:34.814Z,67.82
2019-02-24T04:45:34.605Z,67.44
2019-02-24T04:46:34.571Z,67.35
2019-02-24T04:47:34.499Z,67.44
2019-02-24T04:48:34.457Z,66.69
2019-02-24T04:49:34.451Z,65.74
2019-02-24T04:50:34.331Z,65.74
2019-02-24T04:51:34.249Z,64.61
2019-02-24T04:52:34.214Z,64.89
2019-02-24T04:53:34.129Z,64.79
2019-02-24T04:54:34.133Z,64.98
2019-02-24T04:55:34.009Z,64.98
2019-02-24T04:56:33.980Z,65.74
2019-02-24T04:57:33.897Z,65.17
2019-02-24T04:58:33.896Z,66.22
2019-02-24T04:59:35.254Z,66.12
2019-02-24T05:00:33.752Z,65.74
2019-02-24T05:01:33.653Z,65.93
2019-02-24T05:02:33.617Z,65.93
2019-02-24T05:03:33.624Z,64.89
2019-02-24T05:04:33.500Z,65.08
2019-02-24T05:05:33.412Z,64.70
2019-02-24T05:06:33.420Z,64.61
2019-02-24T05:07:33.294Z,64.61
2019-02-24T05:08:33.306Z,64.61
2019-02-24T05:09:33.172Z,64.14
2019-02-24T05:10:33.141Z,64.61
2019-02-24T05:11:33.054Z,64.89
2019-02-24T05:12:33.054Z,64.42
2019-02-24T05:13:32.938Z,64.42
2019-02-24T05:14:32.943Z,65.21
2019-02-24T05:15:32.830Z,66.22
2019-02-24T05:16:32.790Z,67.25
2019-02-24T05:17:32.704Z,67.63
2019-02-24T05:18:32.697Z,66.97
2019-02-24T05:19:32.582Z,67.35
2019-02-24T05:20:32.560Z,67.16
2019-02-24T05:21:32.481Z,67.35
2019-02-24T05:22:32.423Z,66.69
2019-02-24T05:23:32.425Z,67.72
2019-02-24T05:24:32.314Z,68.10
2019-02-24T05:25:32.307Z,69.62
2019-02-24T05:26:32.190Z,70.18
2019-02-24T05:27:32.106Z,70.18
2019-02-24T05:28:32.077Z,69.71
2019-02-24T05:29:32.073Z,69.24
2019-02-24T05:30:31.955Z,69.24
2019-02-24T05:31:31.952Z,69.14
2019-02-24T05:32:31.836Z,69.14
2019-02-24T05:33:31.746Z,69.14
2019-02-24T05:34:31.708Z,69.14
2019-02-24T05:35:31.628Z,69.52
2019-02-24T05:36:31.629Z,69.33
2019-02-24T05:37:31.505Z,68.48
2019-02-24T05:38:31.470Z,68.29
2019-02-24T05:39:31.387Z,68.20
2019-02-24T05:40:31.384Z,68.20
2019-02-24T05:41:31.351Z,67.82
2019-02-24T05:42:31.230Z,68.48
2019-02-24T05:43:31.159Z,68.29
2019-02-24T05:44:31.120Z,68.39
2019-02-24T05:45:31.058Z,68.67
2019-02-24T05:46:31.028Z,68.48
2019-02-24T05:47:30.911Z,68.48
2019-02-24T05:48:30.873Z,68.48
2019-02-24T05:49:30.801Z,69.71
2019-02-24T05:50:30.798Z,69.43
2019-02-24T05:51:30.755Z,69.81
2019-02-24T05:52:30.641Z,69.90
2019-02-24T05:53:30.563Z,70.75
2019-02-24T05:54:30.521Z,71.79
2019-02-24T05:55:30.436Z,71.22
2019-02-24T05:56:30.433Z,71.50
2019-02-24T05:57:30.407Z,71.03
2019-02-24T05:58:30.280Z,70.65
2019-02-24T05:59:30.193Z,71.03
2019-02-24T06:00:30.159Z,71.12
2019-02-24T06:01:30.078Z,70.47
2019-02-24T06:02:30.041Z,70.28
2019-02-24T06:03:29.953Z,70.09
2019-02-24T06:04:29.908Z,69.43
2019-02-24T06:05:29.834Z,69.62
2019-02-24T06:06:29.739Z,70.28
2019-02-24T06:07:29.800Z,69.14
2019-02-24T06:08:29.690Z,68.86
2019-02-24T06:09:29.603Z,68.57
2019-02-24T06:10:29.564Z,68.95
2019-02-24T06:11:29.485Z,69.24
2019-02-24T06:12:29.375Z,68.39
2019-02-24T06:13:29.369Z,68.20
2019-02-24T06:14:29.324Z,68.29
2019-02-24T06:15:29.331Z,68.48
2019-02-24T06:16:29.138Z,68.39
2019-02-24T06:17:29.120Z,67.25
2019-02-24T06:18:29.014Z,67.07
2019-02-24T06:19:28.999Z,66.12
2019-02-24T06:20:28.973Z,65.55
2019-02-24T06:21:28.892Z,65.74
2019-02-24T06:22:28.776Z,64.79
2019-02-24T06:23:28.763Z,64.23
2019-02-24T06:24:28.660Z,64.61
2019-02-24T06:25:28.734Z,64.70
2019-02-24T06:26:30.157Z,64.61
2019-02-24T06:27:28.525Z,63.48
2019-02-24T06:28:28.497Z,63.10
2019-02-24T06:29:28.407Z,61.87
2019-02-24T06:30:28.298Z,61.61
2019-02-24T06:31:28.286Z,61.15
2019-02-24T06:32:28.190Z,60.96
2019-02-24T06:33:28.258Z,60.01
2019-02-24T06:34:28.048Z,60.86
2019-02-24T06:35:28.045Z,60.86
2019-02-24T06:36:27.940Z,61.33
2019-02-24T06:37:28.011Z,60.77
2019-02-24T06:38:27.816Z,60.77
2019-02-24T06:39:27.814Z,61.05
2019-02-24T06:40:27.686Z,60.30
2019-02-24T06:41:27.693Z,60.39
2019-02-24T06:42:27.655Z,60.58
2019-02-24T06:43:27.581Z,60.11
2019-02-24T06:44:27.458Z,60.39
2019-02-24T06:45:27.417Z,60.01
2019-02-24T06:46:27.335Z,60.30
2019-02-24T06:47:27.430Z,61.15
2019-02-24T06:48:27.223Z,60.77
2019-02-24T06:49:27.177Z,61.33
2019-02-24T06:50:35.066Z,60.11
2019-02-24T06:51:27.059Z,59.25
2019-02-24T06:52:28.155Z,58.31
2019-02-24T06:53:26.939Z,57.37
2019-02-24T06:54:26.853Z,57.27
2019-02-24T06:55:26.822Z,56.45
2019-02-24T06:56:26.735Z,56.23
2019-02-24T06:57:26.739Z,56.04
2019-02-24T06:58:26.701Z,55.41
2019-02-24T06:59:26.590Z,54.93
2019-02-24T07:00:26.502Z,54.37
2019-02-24T07:01:26.494Z,54.74
2019-02-24T07:02:26.462Z,54.21
2019-02-24T07:03:26.351Z,54.77
2019-02-24T07:04:26.262Z,53.74
2019-02-24T07:05:26.230Z,53.92
2019-02-24T07:06:26.221Z,53.45
2019-02-24T07:07:26.110Z,52.06
2019-02-24T07:08:26.019Z,50.54
2019-02-24T07:09:25.987Z,48.77
2019-02-24T07:10:25.903Z,47.85
2019-02-24T07:11:25.993Z,47.47
2019-02-24T07:12:27.947Z,46.99
2019-02-24T07:13:25.785Z,46.45
2019-02-24T07:14:25.668Z,45.12
2019-02-24T07:15:25.669Z,44.93
2019-02-24T07:16:25.661Z,44.48
2019-02-24T07:17:25.547Z,43.91
2019-02-24T07:18:25.512Z,43.62
2019-02-24T07:19:25.503Z,42.96
2019-02-24T07:20:25.396Z,42.11
2019-02-24T07:21:25.392Z,41.63
2019-02-24T07:22:25.277Z,41.92
2019-02-24T07:23:25.188Z,41.44
2019-02-24T07:24:25.188Z,41.44
2019-02-24T07:25:25.152Z,40.99
2019-02-24T07:26:25.163Z,40.12
2019-02-24T07:27:25.030Z,39.83
2019-02-24T07:28:24.946Z,39.64
2019-02-24T07:29:24.911Z,39.45
2019-02-24T07:30:24.952Z,39.09
2019-02-24T07:31:24.920Z,38.33
2019-02-24T07:32:24.792Z,38.73
2019-02-24T07:33:24.713Z,38.64
2019-02-24T07:34:24.675Z,37.88
2019-02-24T07:35:24.594Z,38.45
2019-02-24T07:36:24.675Z,38.07
2019-02-24T07:37:24.491Z,37.99
2019-02-24T07:38:24.554Z,38.37
2019-02-24T07:39:24.436Z,38.20
2019-02-24T07:40:24.353Z,36.87
2019-02-24T07:41:24.357Z,36.70
2019-02-24T07:42:24.322Z,36.79
2019-02-24T07:43:24.319Z,35.19
2019-02-24T07:44:24.200Z,35.65
2019-02-24T07:45:24.117Z,35.29
2019-02-24T07:46:24.119Z,34.53
2019-02-24T07:47:24.081Z,34.44
2019-02-24T07:48:24.078Z,34.63
2019-02-24T07:49:24.091Z,34.53
2019-02-24T07:50:24.005Z,34.34
2019-02-24T07:51:23.871Z,33.67
2019-02-24T07:52:23.847Z,33.48
2019-02-24T07:53:23.764Z,33.48
2019-02-24T07:54:23.841Z,32.99
2019-02-24T07:55:23.731Z,33.58
2019-02-24T07:56:23.732Z,33.67
2019-02-24T07:57:23.646Z,33.58
2019-02-24T07:58:23.602Z,33.37
2019-02-24T07:59:23.525Z,33.65
2019-02-24T08:00:31.751Z,34.05
2019-02-24T08:01:23.492Z,33.58
2019-02-24T08:02:23.408Z,34.26
2019-02-24T08:03:23.398Z,34.09
2019-02-24T08:04:23.305Z,33.42
2019-02-24T08:05:23.278Z,33.04
2019-02-24T08:06:23.376Z,32.96
2019-02-24T08:07:23.178Z,32.39
2019-02-24T08:08:23.162Z,32.09
2019-02-24T08:09:23.135Z,32.48
2019-02-24T08:10:23.059Z,32.20
2019-02-24T08:11:23.134Z,31.55
2019-02-24T08:12:23.075Z,31.34
2019-02-24T08:13:22.935Z,31.15
2019-02-24T08:14:22.929Z,31.74
2019-02-24T08:15:22.890Z,30.98
2019-02-24T08:16:22.898Z,31.36
2019-02-24T08:17:22.813Z,30.98
2019-02-24T08:18:22.783Z,31.26
2019-02-24T08:19:22.698Z,31.55
2019-02-24T08:20:22.698Z,31.84
2019-02-24T08:21:22.688Z,31.64
2019-02-24T08:22:22.596Z,30.79
2019-02-24T08:23:22.587Z,31.24
2019-02-24T08:24:22.533Z,31.84
2019-02-24T08:25:22.470Z,32.03
2019-02-24T08:26:22.540Z,31.93
2019-02-24T08:27:22.414Z,32.04
2019-02-24T08:28:22.353Z,32.03
2019-02-24T08:29:22.332Z,32.20
2019-02-24T08:30:22.332Z,32.58
2019-02-24T08:31:22.338Z,33.15
2019-02-24T08:32:22.210Z,33.25
2019-02-24T08:33:22.213Z,33.34
2019-02-24T08:34:22.174Z,33.63
2019-02-24T08:35:22.091Z,33.93
2019-02-24T08:36:22.186Z,33.37
2019-02-24T08:37:22.067Z,33.39
2019-02-24T08:38:21.979Z,32.23
2019-02-24T08:39:21.983Z,31.26
2019-02-24T08:40:21.941Z,31.26
2019-02-24T08:41:21.940Z,32.40
2019-02-24T08:42:21.940Z,32.23
2019-02-24T08:43:21.820Z,32.15
2019-02-24T08:44:22.313Z,31.60
2019-02-24T08:45:21.743Z,30.94
2019-02-24T08:46:21.700Z,30.75
2019-02-24T08:47:21.708Z,29.99
2019-02-24T08:48:21.621Z,29.51
2019-02-24T08:49:21.589Z,29.30
2019-02-24T08:50:21.503Z,29.59
2019-02-24T08:51:23.289Z,29.49
2019-02-24T08:52:21.498Z,29.02
2019-02-24T08:53:21.390Z,29.10
2019-02-24T08:54:21.379Z,29.67
2019-02-24T08:55:21.377Z,29.88
2019-02-24T08:56:21.280Z,29.51
2019-02-24T08:57:21.352Z,28.46
2019-02-24T08:58:21.231Z,28.00
2019-02-24T08:59:21.164Z,27.61
2019-02-24T09:00:21.226Z,27.62
2019-02-24T09:01:21.141Z,27.83
2019-02-24T09:02:21.115Z,26.89
2019-02-24T09:03:21.022Z,26.81
2019-02-24T09:04:21.024Z,26.63
2019-02-24T09:05:21.021Z,25.30
2019-02-24T09:06:20.907Z,24.73
2019-02-24T09:07:20.910Z,24.15
2019-02-24T09:08:20.907Z,23.57
2019-02-24T09:09:20.791Z,23.77
2019-02-24T09:10:20.784Z,23.48
2019-02-24T09:11:20.754Z,23.47
2019-02-24T09:12:20.758Z,23.85
2019-02-24T09:13:20.665Z,23.27
2019-02-24T09:14:21.525Z,22.97
2019-02-24T09:15:20.581Z,23.06
2019-02-24T09:16:20.548Z,24.04
2019-02-24T09:17:20.648Z,23.07
2019-02-24T09:18:20.523Z,22.78
2019-02-24T09:19:20.434Z,22.98
2019-02-24T09:20:20.442Z,22.89
2019-02-24T09:21:20.402Z,23.18
2019-02-24T09:22:20.399Z,23.39
2019-02-24T09:23:20.310Z,22.82
2019-02-24T09:24:20.276Z,21.95
2019-02-24T09:25:20.211Z,21.67
2019-02-24T09:26:20.195Z,21.86
2019-02-24T09:27:20.191Z,21.86
2019-02-24T09:28:20.094Z,21.56
2019-02-24T09:29:20.071Z,21.28
2019-02-24T09:30:20.205Z,21.38
2019-02-24T09:31:20.042Z,21.08
2019-02-24T09:32:20.042Z,21.28
2019-02-24T09:33:20.062Z,21.28
2019-02-24T09:34:19.919Z,22.24
2019-02-24T09:35:19.832Z,21.57
2019-02-24T09:36:19.840Z,21.19
2019-02-24T09:37:19.802Z,21.19
2019-02-24T09:38:19.809Z,21.30
2019-02-24T09:39:19.725Z,20.72
2019-02-24T09:40:19.686Z,21.28
2019-02-24T09:41:19.617Z,20.81
2019-02-24T09:42:19.596Z,21.28
2019-02-24T09:43:19.683Z,21.78
2019-02-24T09:44:19.559Z,21.21
2019-02-24T09:45:19.480Z,20.36
2019-02-24T09:46:19.485Z,20.36
2019-02-24T09:47:19.446Z,20.45
2019-02-24T09:48:19.453Z,19.59
2019-02-24T09:49:19.358Z,20.45
2019-02-24T09:50:19.334Z,19.59
2019-02-24T09:51:19.242Z,19.30
2019-02-24T09:52:19.246Z,19.10
2019-02-24T09:53:19.246Z,19.48
2019-02-24T09:54:19.221Z,19.20
2019-02-24T09:55:19.126Z,19.97
2019-02-24T09:56:19.098Z,19.89
2019-02-24T09:57:19.017Z,19.79
2019-02-24T09:58:19.096Z,19.40
2019-02-24T09:59:18.977Z,19.30
2019-02-24T10:00:18.901Z,19.30
2019-02-24T10:01:18.971Z,19.10
2019-02-24T10:02:18.969Z,19.77
2019-02-24T10:03:18.788Z,19.88
2019-02-24T10:04:18.771Z,19.90
2019-02-24T10:05:18.767Z,18.73
2019-02-24T10:06:18.742Z,17.57
2019-02-24T10:07:18.740Z,17.76
2019-02-24T10:08:18.647Z,18.34
2019-02-24T10:09:18.620Z,18.15
2019-02-24T10:10:18.528Z,18.06
2019-02-24T10:11:18.528Z,17.77
2019-02-24T10:12:18.533Z,18.36
2019-02-24T10:13:18.417Z,17.98
2019-02-24T10:14:18.417Z,16.83
2019-02-24T10:15:18.373Z,17.01
2019-02-24T10:16:18.377Z,16.82
2019-02-24T10:17:18.289Z,16.82
2019-02-24T10:18:18.293Z,16.52
2019-02-24T10:19:18.175Z,16.62
2019-02-24T10:20:18.256Z,17.40
2019-02-24T10:21:18.140Z,18.37
2019-02-24T10:22:18.062Z,18.38
2019-02-24T10:23:18.062Z,18.20
2019-02-24T10:24:18.029Z,18.60
2019-02-24T10:25:18.026Z,17.35
2019-02-24T10:26:17.949Z,16.87
2019-02-24T10:27:17.900Z,16.67
2019-02-24T10:28:17.826Z,16.58
2019-02-24T10:29:17.826Z,16.29
2019-02-24T10:30:17.818Z,16.49
2019-02-24T10:31:20.045Z,16.39
2019-02-24T10:32:17.787Z,16.69
2019-02-24T10:33:17.677Z,18.71
2019-02-24T10:34:17.679Z,19.48
2019-02-24T10:35:17.601Z,20.46
2019-02-24T10:36:17.487Z,20.56
2019-02-24T10:37:17.553Z,19.88
2019-02-24T10:38:17.475Z,19.78
2019-02-24T10:39:17.369Z,20.56
2019-02-24T10:40:17.434Z,21.23
2019-02-24T10:41:17.337Z,21.62
2019-02-24T10:42:17.250Z,21.33
2019-02-24T10:43:17.228Z,21.13
2019-02-24T10:44:17.193Z,20.56
2019-02-24T10:45:17.336Z,20.56
2019-02-24T10:46:17.116Z,20.64
2019-02-24T10:47:17.088Z,20.64
2019-02-24T10:48:17.085Z,20.53
2019-02-24T10:49:16.999Z,20.92
2019-02-24T10:50:17.000Z,21.21
2019-02-24T10:51:16.881Z,21.48
2019-02-24T10:52:16.959Z,21.97
2019-02-24T10:53:16.847Z,21.58
2019-02-24T10:54:16.759Z,21.30
2019-02-24T10:55:16.963Z,21.20
2019-02-24T10:56:16.647Z,21.38
2019-02-24T10:57:16.636Z,21.96
2019-02-24T10:58:16.621Z,21.86
2019-02-24T10:59:16.983Z,21.58
2019-02-24T11:00:16.736Z,21.86
2019-02-24T11:01:16.530Z,21.95
2019-02-24T11:02:16.474Z,21.94
2019-02-24T11:03:16.475Z,22.33
2019-02-24T11:04:16.355Z,22.03
2019-02-24T11:05:16.268Z,23.67
2019-02-24T11:06:16.362Z,23.77
2019-02-24T11:07:16.235Z,23.19
2019-02-24T11:08:16.148Z,23.67
2019-02-24T11:09:37.151Z,23.67
2019-02-24T11:10:16.118Z,23.77
2019-02-24T11:11:16.119Z,24.81
2019-02-24T11:12:16.001Z,23.66
2019-02-24T11:13:16.007Z,23.19
2019-02-24T11:14:15.915Z,22.89
2019-02-24T11:15:15.881Z,24.23
2019-02-24T11:16:15.811Z,24.73
2019-02-24T11:17:15.879Z,25.39
2019-02-24T11:18:15.773Z,23.46
2019-02-24T11:19:15.679Z,24.33
2019-02-24T11:20:15.676Z,24.81
2019-02-24T11:21:15.647Z,24.70
2019-02-24T11:22:15.649Z,25.39
2019-02-24T11:23:15.557Z,24.70
2019-02-24T11:24:15.529Z,25.47
2019-02-24T11:25:15.446Z,25.46
2019-02-24T11:26:15.439Z,26.61
2019-02-24T11:27:15.405Z,26.61
2019-02-24T11:28:15.360Z,25.84
2019-02-24T11:29:15.296Z,25.64
2019-02-24T11:30:15.219Z,25.16
2019-02-24T11:31:15.303Z,25.83
2019-02-24T11:32:15.197Z,25.92
2019-02-24T11:33:15.082Z,26.01
2019-02-24T11:34:15.077Z,25.82
2019-02-24T11:35:15.048Z,26.70
2019-02-24T11:36:14.969Z,26.70
2019-02-24T11:37:15.048Z,24.87
2019-02-24T11:38:14.864Z,24.68
2019-02-24T11:39:14.844Z,24.29
2019-02-24T11:40:14.846Z,26.04
2019-02-24T11:41:14.736Z,26.13
2019-02-24T11:42:14.808Z,25.46
2019-02-24T11:43:15.458Z,24.50
2019-02-24T11:44:14.630Z,23.35
2019-02-24T11:45:14.705Z,22.97
2019-02-24T11:46:14.572Z,22.78
2019-02-24T11:47:14.486Z,23.07
2019-02-24T11:48:14.497Z,22.88
2019-02-24T11:49:14.391Z,22.97
2019-02-24T11:50:14.453Z,22.97
2019-02-24T11:51:14.334Z,23.46
2019-02-24T11:52:14.393Z,22.20
2019-02-24T11:53:14.251Z,22.12
2019-02-24T11:54:14.284Z,21.44
2019-02-24T11:55:14.225Z,21.82
2019-02-24T11:56:14.148Z,21.91
2019-02-24T11:57:14.224Z,21.81
2019-02-24T11:58:14.018Z,22.18
2019-02-24T11:59:14.119Z,22.28
2019-02-24T12:00:13.985Z,22.08
2019-02-24T12:01:13.914Z,22.08
2019-02-24T12:02:13.903Z,22.18
2019-02-24T12:03:13.869Z,22.18
2019-02-24T12:04:13.860Z,21.39
2019-02-24T12:05:13.761Z,22.24
2019-02-24T12:06:13.674Z,23.58
2019-02-24T12:07:13.654Z,24.35
2019-02-24T12:08:13.626Z,23.10
2019-02-24T12:09:13.636Z,22.70
2019-02-24T12:10:13.625Z,23.47
2019-02-24T12:11:13.444Z,24.23
2019-02-24T12:12:13.515Z,23.37
2019-02-24T12:13:13.389Z,24.62
2019-02-24T12:14:13.393Z,25.38
2019-02-24T12:15:13.388Z,25.77
2019-02-24T12:16:13.288Z,25.86
2019-02-24T12:17:13.189Z,26.15
2019-02-24T12:18:13.194Z,27.11
2019-02-24T12:19:13.147Z,27.01
2019-02-24T12:20:13.161Z,26.15
2019-02-24T12:21:13.039Z,26.06
2019-02-24T12:22:12.949Z,25.86
2019-02-24T12:23:12.963Z,24.44
2019-02-24T12:24:12.914Z,23.88
2019-02-24T12:25:12.910Z,23.21
2019-02-24T12:26:12.825Z,22.63
2019-02-24T12:27:12.833Z,21.57
2019-02-24T12:28:12.797Z,21.00
2019-02-24T12:29:12.674Z,20.51
2019-02-24T12:30:12.677Z,21.28
2019-02-24T12:31:12.606Z,22.15
2019-02-24T12:32:12.559Z,23.11
2019-02-24T12:33:12.589Z,23.01
2019-02-24T12:34:12.474Z,24.55
2019-02-24T12:35:12.448Z,23.58
2019-02-24T12:36:12.368Z,22.74
2019-02-24T12:37:12.318Z,22.24
2019-02-24T12:38:12.325Z,22.44
2019-02-24T12:39:12.321Z,21.86
2019-02-24T12:40:12.255Z,21.66
2019-02-24T12:41:12.213Z,22.14
2019-02-24T12:42:12.133Z,22.71
2019-02-24T12:43:12.081Z,23.78
2019-02-24T12:44:12.086Z,24.37
2019-02-24T12:45:11.971Z,23.60
2019-02-24T12:46:11.887Z,24.86
2019-02-24T12:47:11.881Z,24.86
2019-02-24T12:48:11.860Z,25.06
2019-02-24T12:49:11.851Z,26.89
2019-02-24T12:50:11.845Z,25.36
2019-02-24T12:51:11.726Z,24.50
2019-02-24T12:52:11.640Z,22.88